createdAt,value
2023-01-20T00:02:16.530Z,2.95
2023-01-20T00:07:19.349Z,3.30
2023-01-20T00:12:23.464Z,3.17
2023-01-20T00:17:25.989Z,3.50
2023-01-20T00:22:28.522Z,3.93
2023-01-20T00:27:32.440Z,2.90
2023-01-20T00:32:37.707Z,3.25
2023-01-20T00:37:40.408Z,3.03
2023-01-20T00:42:44.330Z,3.33
2023-01-20T00:47:46.903Z,3.97
2023-01-20T00:52:49.500Z,4.17
2023-01-20T00:57:53.835Z,3.60
2023-01-20T01:07:59.140Z,3.97
2023-01-20T01:13:03.458Z,3.60
2023-01-20T01:23:08.433Z,3.57
2023-01-20T01:28:12.415Z,3.80
2023-01-20T01:33:14.908Z,4.20
2023-01-20T01:38:17.470Z,4.10
2023-01-20T01:43:24.469Z,3.73
2023-01-20T01:48:29.735Z,4.00
2023-01-20T01:53:34.532Z,4.10
2023-01-20T01:58:40.052Z,2.50
2023-01-20T02:03:46.069Z,2.50
2023-01-20T02:08:49.205Z,3.87
2023-01-20T02:13:53.253Z,4.03
2023-01-20T02:19:01.055Z,2.83
2023-01-20T02:24:28.614Z,4.17
2023-01-20T02:29:45.329Z,4.30
2023-01-20T02:34:53.395Z,2.47
2023-01-20T02:40:10.558Z,3.97
2023-01-20T02:45:16.721Z,3.10
2023-01-20T02:50:23.627Z,2.67
2023-01-20T02:55:29.420Z,3.10
2023-01-20T03:00:34.225Z,1.37
2023-01-20T03:05:40.295Z,3.63
2023-01-20T03:10:43.390Z,2.30
2023-01-20T03:15:50.413Z,3.33
2023-01-20T03:20:54.272Z,3.77
2023-01-20T03:25:57.898Z,4.10
2023-01-20T03:31:01.660Z,2.50
2023-01-20T03:36:05.934Z,3.63
2023-01-20T03:41:11.128Z,1.70
2023-01-20T03:46:16.832Z,2.57
2023-01-20T03:51:24.113Z,1.87
2023-01-20T03:56:29.824Z,1.53
2023-01-20T04:01:33.674Z,3.30
2023-01-20T04:06:38.299Z,2.03
2023-01-20T04:11:40.887Z,1.50
2023-01-20T04:16:43.646Z,1.93
2023-01-20T04:21:49.455Z,1.80
2023-01-20T04:26:52.111Z,1.67
2023-01-20T04:31:59.173Z,2.17
2023-01-20T04:37:03.193Z,3.53
2023-01-20T04:42:05.979Z,2.55
2023-01-20T04:47:08.846Z,2.27
2023-01-20T04:52:12.760Z,4.37
2023-01-20T04:57:15.263Z,4.45
2023-01-20T05:02:17.819Z,2.47
2023-01-20T05:07:21.753Z,4.20
2023-01-20T05:12:24.354Z,1.45
2023-01-20T05:17:27.022Z,4.33
2023-01-20T05:22:33.235Z,4.90
2023-01-20T05:27:36.128Z,5.77
2023-01-20T05:32:39.039Z,5.70
2023-01-20T05:37:43.033Z,1.40
2023-01-20T05:42:46.182Z,2.50
2023-01-20T05:47:48.687Z,5.60
2023-01-20T05:52:53.030Z,6.47
2023-01-20T05:57:55.507Z,2.47
2023-01-20T06:02:58.242Z,2.00
2023-01-20T06:08:02.295Z,3.17
2023-01-20T06:13:04.936Z,5.43
2023-01-20T06:18:07.591Z,4.90
2023-01-20T06:23:11.565Z,5.47
2023-01-20T06:28:14.227Z,5.00
2023-01-20T06:33:16.812Z,4.93
2023-01-20T06:38:20.721Z,4.60
2023-01-20T06:43:23.373Z,6.13
2023-01-20T06:48:25.916Z,5.47
2023-01-20T06:53:30.145Z,5.10
2023-01-20T07:03:35.274Z,6.43
2023-01-20T07:08:39.194Z,6.23
2023-01-20T07:13:41.816Z,7.13
2023-01-20T07:18:44.919Z,6.10
2023-01-20T07:23:49.162Z,6.13
2023-01-20T07:33:56.006Z,3.77
2023-01-20T07:39:00.681Z,3.27
2023-01-20T07:44:03.789Z,6.18
2023-01-20T07:49:06.457Z,5.17
2023-01-20T07:54:11.290Z,3.93
2023-01-20T07:59:13.910Z,4.17
2023-01-20T08:04:17.941Z,5.13
2023-01-20T08:09:21.978Z,2.83
2023-01-20T08:14:24.785Z,3.25
2023-01-20T08:19:29.461Z,4.73
2023-01-20T08:24:33.578Z,2.37
2023-01-20T08:29:36.346Z,5.32
2023-01-20T08:34:39.087Z,5.70
2023-01-20T08:39:43.317Z,3.47
2023-01-20T08:49:49.254Z,2.30
2023-01-20T08:54:54.089Z,5.03
2023-01-20T08:59:56.692Z,4.07
2023-01-20T09:04:59.303Z,3.17
2023-01-20T09:10:03.314Z,3.07
2023-01-20T09:15:07.549Z,4.32
2023-01-20T09:25:14.072Z,4.10
2023-01-20T09:35:19.100Z,3.20
2023-01-20T09:40:59.011Z,3.10
2023-01-20T09:46:04.489Z,5.30
2023-01-20T09:51:27.416Z,3.23
2023-01-20T09:56:32.191Z,1.73
2023-01-20T10:01:38.301Z,4.20
2023-01-20T10:06:42.652Z,2.90
2023-01-20T10:16:52.581Z,4.53
2023-01-20T10:21:59.662Z,3.90
2023-01-20T10:27:03.055Z,3.83
2023-01-20T10:32:11.027Z,3.30
2023-01-20T10:37:15.166Z,4.33
2023-01-20T10:42:18.424Z,3.67
2023-01-20T10:47:34.178Z,2.63
2023-01-20T10:52:45.500Z,2.00
2023-01-20T10:57:50.019Z,3.10
2023-01-20T11:02:54.180Z,2.30
2023-01-20T11:07:57.492Z,1.98
2023-01-20T11:13:01.633Z,2.53
2023-01-20T11:18:26.614Z,2.42
2023-01-20T11:23:35.386Z,2.03
2023-01-20T11:28:45.449Z,1.77
2023-01-20T11:34:00.333Z,2.88
2023-01-20T11:39:02.906Z,1.17
2023-01-20T11:44:07.757Z,2.95
2023-01-20T11:49:18.933Z,2.58
2023-01-20T11:54:22.349Z,2.75
2023-01-20T11:59:27.925Z,4.70
2023-01-20T12:04:42.299Z,2.20
2023-01-20T12:14:49.964Z,4.28
2023-01-20T12:20:00.264Z,4.30
2023-01-20T12:25:11.548Z,5.07
2023-01-20T12:30:22.909Z,4.75
2023-01-20T12:35:28.953Z,5.22
2023-01-20T12:40:36.649Z,4.97
2023-01-20T12:45:47.864Z,5.65
2023-01-20T12:50:58.753Z,3.30
2023-01-20T12:56:05.543Z,5.87
2023-01-20T13:01:17.961Z,6.17
2023-01-20T13:06:35.931Z,8.13
2023-01-20T13:11:47.790Z,6.80
2023-01-20T13:16:53.196Z,6.63
2023-01-20T13:22:07.306Z,8.63
2023-01-20T13:27:13.782Z,6.50
2023-01-20T13:32:35.112Z,6.93
2023-01-20T13:37:38.287Z,5.23
2023-01-20T13:42:52.158Z,7.93
2023-01-20T13:47:58.719Z,5.35
2023-01-20T13:53:19.205Z,9.17
2023-01-20T13:58:24.102Z,8.77
2023-01-20T14:03:28.831Z,7.10
2023-01-20T14:08:32.744Z,6.87
2023-01-20T14:13:36.649Z,6.00
2023-01-20T14:18:41.653Z,6.57
2023-01-20T14:23:45.970Z,3.87
2023-01-20T14:33:58.083Z,6.27
2023-01-20T14:39:04.000Z,8.30
2023-01-20T14:44:16.404Z,8.43
2023-01-20T14:49:20.994Z,7.80
2023-01-20T14:54:40.243Z,5.73
2023-01-20T14:59:42.888Z,6.37
2023-01-20T15:04:46.891Z,7.83
2023-01-20T15:09:54.302Z,9.13
2023-01-20T15:15:00.723Z,6.90
2023-01-20T15:20:04.889Z,6.67
2023-01-20T15:25:13.592Z,9.15
2023-01-20T15:30:21.179Z,5.13
2023-01-20T15:35:26.769Z,8.23
2023-01-20T15:40:29.446Z,8.03
2023-01-20T15:45:39.655Z,8.00
2023-01-20T15:50:45.412Z,9.63
2023-01-20T16:00:50.723Z,8.03
2023-01-20T16:05:55.730Z,9.13
2023-01-20T16:10:58.281Z,5.80
2023-01-20T16:16:01.497Z,7.63
2023-01-20T16:21:05.771Z,7.70
2023-01-20T16:31:11.282Z,10.27
2023-01-20T16:36:16.244Z,8.67
2023-01-20T16:41:21.497Z,9.60
2023-01-20T16:46:25.316Z,8.77
2023-01-20T16:51:29.932Z,10.63
2023-01-20T16:56:33.076Z,9.40
2023-01-20T17:01:35.738Z,7.60
2023-01-20T17:06:41.085Z,8.60
2023-01-20T17:11:43.831Z,8.77
2023-01-20T17:16:46.628Z,10.37
2023-01-20T17:21:51.252Z,7.97
2023-01-20T17:26:54.474Z,9.30
2023-01-20T17:31:57.621Z,9.93
2023-01-20T17:37:04.706Z,9.63
2023-01-20T17:42:07.371Z,9.23
2023-01-20T17:47:09.850Z,10.17
2023-01-20T17:52:13.709Z,9.93
2023-01-20T17:57:16.242Z,10.05
2023-01-20T18:02:20.813Z,10.80
2023-01-20T18:07:24.832Z,9.83
2023-01-20T18:12:27.455Z,9.80
2023-01-20T18:17:34.237Z,9.57
2023-01-20T18:22:38.254Z,10.27
2023-01-20T18:27:40.891Z,10.35
2023-01-20T18:32:43.581Z,9.87
2023-01-20T18:38:01.877Z,10.77
2023-01-20T18:43:05.700Z,10.03
2023-01-20T18:48:10.112Z,9.93
2023-01-20T18:53:14.185Z,10.90
2023-01-20T18:58:17.733Z,10.35
2023-01-20T19:03:20.610Z,10.67
2023-01-20T19:08:24.805Z,12.00
2023-01-20T19:18:29.794Z,11.43
2023-01-20T19:23:33.815Z,11.40
2023-01-20T19:28:36.583Z,11.25
2023-01-20T19:33:39.509Z,10.47
2023-01-20T19:38:44.413Z,9.80
2023-01-20T19:43:47.118Z,10.50
2023-01-20T19:48:49.601Z,9.63
2023-01-20T19:53:57.447Z,11.37
2023-01-20T19:59:01.409Z,10.53
2023-01-20T20:04:05.600Z,9.95
2023-01-20T20:14:13.888Z,10.77
2023-01-20T20:19:18.024Z,8.73
2023-01-20T20:24:23.546Z,10.07
2023-01-20T20:29:28.046Z,10.63
2023-01-20T20:34:30.768Z,10.80
2023-01-20T20:39:33.494Z,9.87
2023-01-20T20:44:37.389Z,9.00
2023-01-20T20:49:40.127Z,10.40
2023-01-20T20:54:42.898Z,9.83
2023-01-20T20:59:58.494Z,8.73
2023-01-20T21:05:02.172Z,9.30
2023-01-20T21:10:05.754Z,9.57
2023-01-20T21:15:11.379Z,8.52
2023-01-20T21:20:14.395Z,8.80
2023-01-20T21:25:17.746Z,9.40
2023-01-20T21:30:21.812Z,9.52
2023-01-20T21:35:24.606Z,8.60
2023-01-20T21:40:27.481Z,8.27
2023-01-20T21:45:31.505Z,9.43
2023-01-20T21:50:51.788Z,9.52
2023-01-20T21:55:54.407Z,10.03
2023-01-20T22:00:58.372Z,8.47
2023-01-20T22:06:03.825Z,9.02
2023-01-20T22:11:06.689Z,6.87
2023-01-20T22:16:10.909Z,7.43
2023-01-20T22:26:16.270Z,8.97
2023-01-20T22:31:23.314Z,10.03
2023-01-20T22:36:26.166Z,10.40
2023-01-20T22:41:28.950Z,9.07
2023-01-20T22:46:32.800Z,9.83
2023-01-20T22:51:35.293Z,10.13
2023-01-20T22:56:38.928Z,9.00
2023-01-20T23:01:42.874Z,7.93
2023-01-20T23:06:45.460Z,9.55
2023-01-20T23:11:48.759Z,8.20
2023-01-20T23:16:52.759Z,8.77
2023-01-20T23:21:55.419Z,9.00
2023-01-20T23:26:58.055Z,9.10
2023-01-20T23:32:02.116Z,9.63
2023-01-20T23:37:04.814Z,9.27
2023-01-20T23:42:07.592Z,8.70
2023-01-20T23:47:11.470Z,9.07
2023-01-20T23:52:14.332Z,9.27
2023-01-20T23:57:16.956Z,7.23
